Dobrodošli na spletni strani vremenske postaje Senovo. Vse informacije so informativnega značaja, saj vremenska postaja ni del državne mreže meteoroloških postaj. AKTUALNIH OBVESTIL NI.


Sneg/Led Od: 23-02-2018 00:00 Do: 23:59 Opozorilo za: Sneg/Led Stopnja: Rumena info button

Pogled proti Armezu več informacij Pogled proti Armezu


Lisca več informacij Lisca


Radar strel več informacij blitzortung!


opozorilo za sneg/led več informacij rain snow radar


Obiščite še:

Template documentation
and downloads

And another site



Weather Underground, zgodovina - Tekstovno

Dnevni povzetek za Januar 27, 2018 Enote:  Angleško    Metrično   Obe
« Predhodni Dan
Naslednji Dan »
Dnevni Tedenski Mesečni Letni Po meri
  Višja: Nižja: Povprečje:
Temperatura: TemperatureC °F -0.5 °F 2.6 °F
Točka rosišča: DewpointC °F -1.9 °F 0.4 °F
Vlažnost: Humidity % 75 % 85 %
Hitrost vetra: WindSpeedKMH mph 0.0 mph 3.2 mph
Sunki vetra: WindSpeedGustKMH mph - -
Veter:- - SE
Zračni tlak: PressurehPa in 1021.9 in -
Padavine: 0.0 in    
Historical Graphs
 
 
Tabelarni podarki za Januar 27, 2018
Čas Temperatura Točka rosišča Zračni tlak Veter Hitrost vetra Sunki vetra Vlažnost Intenziteta padavin (urna)
TemperatureC °F DewpointC °F PressurehPa in Calm     Humidity % HourlyPrecipMM in
00:00 1.3 °F -1.4 °F 1021.9 in NNW 0.6 mph 4.3 mph 82 % 0.0 in
00:05 1.2 °F -1.6 °F 1021.9 in NW 0.2 mph 4.0 mph 82 % 0.0 in
00:10 1.2 °F -1.4 °F 1021.9 in NW 0.2 mph 4.0 mph 83 % 0.0 in
00:15 1.1 °F -1.4 °F 1022.9 in Calm     83 % 0.0 in
00:20 1.1 °F -1.4 °F 1022.9 in Calm     83 % 0.0 in
00:25 1.0 °F -1.6 °F 1022.9 in NW 0.2 mph 2.6 mph 83 % 0.0 in
00:30 1.0 °F -1.6 °F 1022.9 in NW 0.3 mph 2.6 mph 83 % 0.0 in
00:35 0.9 °F -1.5 °F 1022.9 in NW 0.2 mph 1.4 mph 84 % 0.0 in
00:40 0.9 °F -1.5 °F 1022.9 in Calm     84 % 0.0 in
00:45 0.9 °F -1.5 °F 1023.9 in Calm     84 % 0.0 in
00:50 0.9 °F -1.5 °F 1023.9 in NW 0.3 mph 4.0 mph 84 % 0.0 in
00:55 0.9 °F -1.5 °F 1023.9 in NW 0.6 mph 4.0 mph 84 % 0.0 in
01:00 0.9 °F -1.3 °F 1022.9 in NW 0.5 mph 4.0 mph 85 % 0.0 in
01:05 1.0 °F -1.2 °F 1022.9 in Calm     85 % 0.0 in
01:10 1.1 °F -1.2 °F 1022.9 in Calm     85 % 0.0 in
01:15 1.1 °F -1.2 °F 1022.9 in Calm     85 % 0.0 in
01:20 1.2 °F -1.1 °F 1022.9 in Calm     85 % 0.0 in
01:25 1.3 °F -0.9 °F 1022.9 in Calm     85 % 0.0 in
01:30 1.4 °F -0.7 °F 1022.9 in Calm     86 % 0.0 in
01:35 1.4 °F -0.7 °F 1022.9 in Calm     86 % 0.0 in
01:40 1.4 °F -0.7 °F 1022.9 in Calm     86 % 0.0 in
01:45 1.5 °F -0.6 °F 1022.9 in Calm     86 % 0.0 in
01:50 1.6 °F -0.3 °F 1022.9 in Calm     87 % 0.0 in
01:55 1.6 °F -0.3 °F 1022.9 in Calm     87 % 0.0 in
02:00 1.6 °F -0.3 °F 1022.9 in WNW 0.3 mph 3.2 mph 87 % 0.0 in
02:05 1.6 °F -0.3 °F 1022.9 in WNW 0.3 mph 3.2 mph 87 % 0.0 in
02:10 1.7 °F -0.2 °F 1022.9 in WSW 0.5 mph 4.0 mph 87 % 0.0 in
02:15 1.7 °F -0.2 °F 1022.9 in WSW 0.5 mph 4.0 mph 87 % 0.0 in
02:20 1.7 °F -0.1 °F 1022.9 in North 0.2 mph   88 % 0.0 in
02:25 1.8 °F 0.0 °F 1022.9 in Calm     88 % 0.0 in
02:30 2.0 °F 0.1 °F 1022.9 in Calm     87 % 0.0 in
02:35 2.2 °F 0.4 °F 1022.9 in ESE 0.3 mph 4.7 mph 88 % 0.0 in
02:40 2.4 °F 0.6 °F 1022.9 in South 1.9 mph 5.0 mph 88 % 0.0 in
02:45 2.5 °F 0.7 °F 1022.9 in SSW 2.4 mph 5.0 mph 88 % 0.0 in
02:50 2.6 °F 0.8 °F 1022.9 in SW 1.1 mph 4.7 mph 88 % 0.0 in
02:55 2.6 °F 0.8 °F 1022.9 in SW 0.6 mph 4.3 mph 88 % 0.0 in
03:00 2.6 °F 0.9 °F 1022.9 in Calm     89 % 0.0 in
03:05 2.5 °F 0.9 °F 1022.9 in Calm   4.3 mph 89 % 0.0 in
03:10 2.3 °F 0.7 °F 1022.9 in WSW 1.0 mph 5.0 mph 89 % 0.0 in
03:15 2.2 °F 0.6 °F 1022.9 in West 1.6 mph 5.0 mph 89 % 0.0 in
03:20 2.1 °F 0.5 °F 1022.9 in NW 0.5 mph 3.5 mph 89 % 0.0 in
03:25 2.0 °F 0.4 °F 1022.9 in Calm     89 % 0.0 in
03:30 1.9 °F 0.3 °F 1022.9 in Calm     89 % 0.0 in
03:35 1.8 °F 0.2 °F 1022.9 in NW 0.2 mph 2.1 mph 89 % 0.0 in
03:40 1.7 °F 0.1 °F 1023.9 in WNW 0.3 mph 3.2 mph 89 % 0.0 in
03:45 1.6 °F 0.0 °F 1023.9 in NW 0.6 mph 4.3 mph 89 % 0.0 in
03:50 1.5 °F -0.1 °F 1023.9 in NNW 0.5 mph 4.3 mph 89 % 0.0 in
03:55 1.5 °F -0.1 °F 1022.9 in Calm     89 % 0.0 in
04:00 1.4 °F -0.2 °F 1022.9 in Calm     89 % 0.0 in
04:05 1.4 °F -0.2 °F 1022.9 in Calm     89 % 0.0 in
04:10 1.3 °F -0.3 °F 1021.9 in Calm     89 % 0.0 in
04:15 1.3 °F -0.3 °F 1021.9 in Calm     89 % 0.0 in
04:20 1.2 °F -0.4 °F 1021.9 in Calm     89 % 0.0 in
04:25 1.1 °F -0.5 °F 1022.9 in Calm     89 % 0.0 in
04:30 1.0 °F -0.6 °F 1022.9 in Calm     89 % 0.0 in
04:35 1.0 °F -0.6 °F 1022.9 in Calm     89 % 0.0 in
04:40 0.9 °F -0.7 °F 1022.9 in Calm     89 % 0.0 in
04:45 0.9 °F -0.7 °F 1022.9 in Calm     89 % 0.0 in
04:50 0.8 °F -0.8 °F 1022.9 in Calm     89 % 0.0 in
04:55 0.7 °F -0.9 °F 1023.9 in Calm     89 % 0.0 in
05:00 0.6 °F -1.0 °F 1023.9 in Calm     89 % 0.0 in
05:05 0.6 °F -1.0 °F 1023.9 in Calm     89 % 0.0 in
05:10 0.5 °F -1.1 °F 1023.9 in Calm     89 % 0.0 in
05:15 0.4 °F -1.2 °F 1023.9 in Calm     89 % 0.0 in
05:20 0.4 °F -1.2 °F 1023.9 in Calm     89 % 0.0 in
05:25 0.4 °F -1.2 °F 1023.9 in Calm     89 % 0.0 in
05:30 0.4 °F -1.1 °F 1023.9 in Calm     90 % 0.0 in
05:35 0.3 °F -1.2 °F 1023.9 in Calm     90 % 0.0 in
05:41 0.4 °F -1.1 °F 1023.9 in Calm     90 % 0.0 in
05:46 0.4 °F -1.1 °F 1023.9 in Calm     90 % 0.0 in
05:51 0.4 °F -1.1 °F 1023.9 in Calm     90 % 0.0 in
05:56 0.3 °F -1.2 °F 1023.9 in Calm     90 % 0.0 in
06:01 0.3 °F -1.2 °F 1023.9 in Calm     90 % 0.0 in
06:06 0.3 °F -1.2 °F 1023.9 in Calm     90 % 0.0 in
06:11 0.3 °F -1.2 °F 1023.9 in Calm     90 % 0.0 in
06:16 0.3 °F -1.2 °F 1023.9 in Calm     90 % 0.0 in
06:21 0.2 °F -1.2 °F 1023.9 in Calm     90 % 0.0 in
06:26 0.2 °F -1.2 °F 1024.9 in Calm     90 % 0.0 in
06:31 0.1 °F -1.3 °F 1024.9 in Calm     90 % 0.0 in
06:36 0.1 °F -1.3 °F 1024.9 in Calm     90 % 0.0 in
06:41 0.0 °F -1.4 °F 1024.9 in Calm     90 % 0.0 in
06:46 0.0 °F -1.4 °F 1024.9 in Calm     90 % 0.0 in
06:51 0.0 °F -1.4 °F 1024.9 in Calm     90 % 0.0 in
06:56 -0.1 °F -1.6 °F 1024.9 in SW 0.3 mph 4.0 mph 90 % 0.0 in
07:01 -0.2 °F -1.7 °F 1024.9 in SW 0.3 mph 4.0 mph 90 % 0.0 in
07:06 -0.3 °F -1.7 °F 1024.9 in Calm     90 % 0.0 in
07:11 -0.4 °F -1.8 °F 1024.9 in Calm     90 % 0.0 in
07:16 -0.3 °F -1.7 °F 1024.9 in Calm     90 % 0.0 in
07:21 -0.4 °F -1.8 °F 1024.9 in Calm     90 % 0.0 in
07:26 -0.4 °F -1.8 °F 1024.9 in Calm     90 % 0.0 in
07:31 -0.5 °F -1.9 °F 1024.9 in Calm     90 % 0.0 in
07:36 -0.4 °F -1.8 °F 1024.9 in Calm     90 % 0.0 in
07:41 -0.5 °F -1.9 °F 1024.9 in Calm     90 % 0.0 in
07:46 -0.5 °F -1.9 °F 1024.9 in Calm     90 % 0.0 in
07:51 -0.5 °F -1.9 °F 1024.9 in Calm     90 % 0.0 in
07:56 -0.5 °F -1.9 °F 1026.0 in Calm     90 % 0.0 in
08:01 -0.5 °F -1.9 °F 1026.0 in Calm     90 % 0.0 in
08:06 -0.5 °F -1.9 °F 1026.0 in Calm     90 % 0.0 in
08:11 -0.5 °F -1.8 °F 1026.0 in Calm     91 % 0.0 in
08:16 -0.5 °F -1.8 °F 1026.0 in Calm     91 % 0.0 in
08:21 -0.4 °F -1.7 °F 1026.0 in Calm     91 % 0.0 in
08:26 -0.4 °F -1.7 °F 1026.0 in Calm     91 % 0.0 in
08:31 -0.2 °F -1.5 °F 1026.0 in Calm     91 % 0.0 in
08:35 -0.1 °F -1.4 °F 1026.0 in Calm     91 % 0.0 in
08:40 0.0 °F -1.3 °F 1027.0 in Calm     91 % 0.0 in
08:45 0.1 °F -1.2 °F 1027.0 in Calm     91 % 0.0 in
08:50 0.2 °F -0.9 °F 1027.0 in Calm     92 % 0.0 in
08:55 0.3 °F -0.8 °F 1027.0 in Calm     92 % 0.0 in
09:00 0.4 °F -0.7 °F 1027.0 in Calm     92 % 0.0 in
09:05 0.5 °F -0.7 °F 1027.0 in Calm     92 % 0.0 in
09:10 0.6 °F -0.6 °F 1027.0 in Calm     92 % 0.0 in
09:15 0.8 °F -0.3 °F 1027.0 in Calm     92 % 0.0 in
09:21 0.9 °F -0.1 °F 1027.0 in Calm     93 % 0.0 in
09:26 1.1 °F 0.1 °F 1027.0 in Calm     93 % 0.0 in
09:31 1.3 °F 0.3 °F 1027.0 in Calm     93 % 0.0 in
09:36 1.6 °F 0.6 °F 1027.0 in Calm     93 % 0.0 in
09:41 1.8 °F 0.8 °F 1026.0 in SW 0.3 mph 2.6 mph 93 % 0.0 in
09:46 2.0 °F 1.0 °F 1026.0 in SW 0.8 mph 4.0 mph 93 % 0.0 in
09:51 2.4 °F 1.4 °F 1026.0 in SSW 1.3 mph 4.0 mph 93 % 0.0 in
09:56 2.9 °F 2.1 °F 1027.0 in SE 1.4 mph 10.5 mph 94 % 0.0 in
10:01 3.4 °F 2.5 °F 1027.0 in East 2.6 mph 10.5 mph 94 % 0.0 in
10:06 3.7 °F 2.8 °F 1027.0 in ESE 3.9 mph 10.5 mph 94 % 0.0 in
10:11 4.1 °F 3.2 °F 1027.0 in ESE 4.2 mph 6.9 mph 94 % 0.0 in
10:16 4.4 °F 3.5 °F 1027.0 in ESE 5.0 mph 9.0 mph 94 % 0.0 in
10:21 4.7 °F 3.8 °F 1027.0 in ESE 5.3 mph 9.0 mph 94 % 0.0 in
10:26 5.0 °F 4.1 °F 1028.0 in East 5.8 mph 10.5 mph 94 % 0.0 in
10:31 5.0 °F 4.1 °F 1028.0 in East 6.4 mph 11.6 mph 94 % 0.0 in
10:36 5.1 °F 4.2 °F 1028.0 in ENE 6.9 mph 12.6 mph 94 % 0.0 in
10:41 5.3 °F 4.4 °F 1028.0 in ENE 7.2 mph 12.6 mph 94 % 0.0 in
10:46 5.3 °F 4.3 °F 1028.0 in ENE 6.6 mph 9.7 mph 93 % 0.0 in
10:51 5.4 °F 4.3 °F 1028.0 in ENE 5.8 mph 9.7 mph 93 % 0.0 in
10:56 5.6 °F 4.6 °F 1028.0 in ENE 5.6 mph 9.3 mph 93 % 0.0 in
11:01 5.6 °F 4.6 °F 1028.0 in East 5.5 mph 9.3 mph 93 % 0.0 in
11:06 5.7 °F 4.5 °F 1028.0 in East 5.3 mph 9.0 mph 92 % 0.0 in
11:11 5.9 °F 4.7 °F 1028.0 in ENE 5.6 mph 11.6 mph 92 % 0.0 in
11:16 6.0 °F 4.7 °F 1028.0 in ENE 7.2 mph 11.6 mph 91 % 0.0 in
11:21 6.1 °F 4.7 °F 1028.0 in ENE 7.9 mph 10.5 mph 91 % 0.0 in
11:26 6.4 °F 4.9 °F 1028.0 in ENE 7.7 mph 11.9 mph 90 % 0.0 in
11:31 6.5 °F 5.0 °F 1028.0 in ENE 8.0 mph 11.9 mph 90 % 0.0 in
11:36 6.6 °F 4.9 °F 1028.0 in ENE 7.9 mph 10.5 mph 89 % 0.0 in
11:41 6.5 °F 4.7 °F 1028.0 in ENE 8.5 mph 13.0 mph 88 % 0.0 in
11:46 6.4 °F 4.4 °F 1028.0 in ENE 10.5 mph 16.6 mph 87 % 0.0 in
11:51 6.3 °F 4.1 °F 1028.0 in ENE 10.8 mph 16.6 mph 86 % 0.0 in
11:56 6.3 °F 4.1 °F 1028.0 in ENE 10.9 mph 16.6 mph 86 % 0.0 in
12:01 6.2 °F 3.9 °F 1028.0 in ENE 10.8 mph 16.6 mph 85 % 0.0 in
12:06 6.1 °F 3.6 °F 1028.0 in ENE 10.5 mph 15.4 mph 84 % 0.0 in
12:11 6.2 °F 3.7 °F 1028.0 in ENE 10.8 mph 15.8 mph 84 % 0.0 in
12:16 6.3 °F 3.6 °F 1028.0 in ENE 10.8 mph 16.6 mph 83 % 0.0 in
12:21 6.4 °F 3.7 °F 1028.0 in ENE 10.1 mph 16.6 mph 83 % 0.0 in
12:26 6.5 °F 3.7 °F 1028.0 in ENE 10.1 mph 14.0 mph 82 % 0.0 in
12:31 6.4 °F 3.6 °F 1028.0 in ENE 10.0 mph 13.7 mph 82 % 0.0 in
12:36 6.4 °F 3.4 °F 1028.0 in East 9.5 mph 14.0 mph 81 % 0.0 in
12:41 6.5 °F 3.3 °F 1028.0 in ENE 9.5 mph 14.0 mph 80 % 0.0 in
12:46 6.5 °F 3.3 °F 1028.0 in ENE 9.3 mph 15.8 mph 80 % 0.0 in
12:51 6.5 °F 3.1 °F 1028.0 in ENE 9.5 mph 15.8 mph 79 % 0.0 in
12:56 6.4 °F 3.0 °F 1028.0 in ENE 10.0 mph 14.8 mph 79 % 0.0 in
13:01 6.5 °F 2.9 °F 1028.0 in ENE 11.1 mph 15.4 mph 78 % 0.0 in
13:07 6.5 °F 2.9 °F 1028.0 in ENE 10.9 mph 15.4 mph 78 % 0.0 in
13:12 6.5 °F 2.8 °F 1028.0 in ENE 9.5 mph 13.7 mph 77 % 0.0 in
13:17 6.5 °F 2.8 °F 1028.0 in ENE 9.7 mph 14.8 mph 77 % 0.0 in
13:22 6.5 °F 2.8 °F 1028.0 in ENE 10.8 mph 16.9 mph 77 % 0.0 in
13:27 6.5 °F 2.8 °F 1028.0 in NE 11.3 mph 16.9 mph 77 % 0.0 in
13:32 6.5 °F 2.6 °F 1028.0 in NE 10.6 mph 17.7 mph 76 % 0.0 in
13:37 6.5 °F 2.6 °F 1028.0 in NE 10.6 mph 17.7 mph 76 % 0.0 in
13:42 6.5 °F 2.6 °F 1028.0 in NE 10.8 mph 16.3 mph 76 % 0.0 in
13:47 6.4 °F 2.5 °F 1028.0 in NE 11.3 mph 17.2 mph 76 % 0.0 in
13:52 6.4 °F 2.5 °F 1028.0 in NE 11.7 mph 17.2 mph 76 % 0.0 in
13:57 6.4 °F 2.5 °F 1028.0 in NE 11.6 mph 16.3 mph 76 % 0.0 in
14:02 6.4 °F 2.5 °F 1028.0 in ENE 10.5 mph 16.6 mph 76 % 0.0 in
14:07 6.4 °F 2.3 °F 1028.0 in NE 10.1 mph 16.6 mph 75 % 0.0 in
14:12 6.4 °F 2.3 °F 1028.0 in NE 9.5 mph 15.8 mph 75 % 0.0 in
14:17 6.4 °F 2.3 °F 1028.0 in NE 9.3 mph 16.6 mph 75 % 0.0 in
14:22 6.4 °F 2.3 °F 1028.0 in NE 9.8 mph 16.6 mph 75 % 0.0 in
14:27 6.5 °F 2.4 °F 1028.0 in NE 8.5 mph 12.2 mph 75 % 0.0 in
14:32 6.5 °F 2.4 °F 1028.0 in ENE 8.8 mph 16.6 mph 75 % 0.0 in
14:37 6.4 °F 2.3 °F 1028.0 in NE 10.1 mph 16.6 mph 75 % 0.0 in
14:42 6.3 °F 2.2 °F 1028.0 in NE 10.9 mph 17.7 mph 75 % 0.0 in
14:47 6.1 °F 2.0 °F 1028.0 in NE 11.6 mph 17.7 mph 75 % 0.0 in
14:52 6.1 °F 2.0 °F 1028.0 in NE 10.8 mph 17.2 mph 75 % 0.0 in
14:57 6.0 °F 1.9 °F 1028.0 in NE 10.6 mph 15.8 mph 75 % 0.0 in
15:02 6.0 °F 1.9 °F 1028.0 in ENE 10.8 mph 15.8 mph 75 % 0.0 in
15:07 5.9 °F 1.8 °F 1028.0 in NE 11.1 mph 16.3 mph 75 % 0.0 in
15:12 5.8 °F 1.7 °F 1028.0 in NE 10.6 mph 16.3 mph 75 % 0.0 in
15:17 5.6 °F 1.5 °F 1028.0 in NE 9.3 mph 14.0 mph 75 % 0.0 in
15:22 5.6 °F 1.5 °F 1028.0 in NE 9.0 mph 12.6 mph 75 % 0.0 in
15:27 5.5 °F 1.4 °F 1029.0 in NE 8.4 mph 12.2 mph 75 % 0.0 in
15:32 5.4 °F 1.3 °F 1029.0 in NE 9.0 mph 16.6 mph 75 % 0.0 in
15:37 5.3 °F 1.2 °F 1029.0 in NE 9.7 mph 16.6 mph 75 % 0.0 in
15:42 5.1 °F 1.1 °F 1029.0 in NE 7.2 mph 14.8 mph 75 % 0.0 in
15:47 5.0 °F 0.9 °F 1029.0 in NE 6.3 mph 11.6 mph 75 % 0.0 in
15:52 5.0 °F 0.9 °F 1029.0 in NE 7.9 mph 12.2 mph 75 % 0.0 in
15:57 4.8 °F 0.9 °F 1030.0 in ENE 9.0 mph 12.2 mph 76 % 0.0 in
16:02 4.7 °F 0.8 °F 1030.0 in ENE 7.7 mph 11.9 mph 76 % 0.0 in
16:07 4.7 °F 0.8 °F 1030.0 in ENE 7.1 mph 14.0 mph 76 % 0.0 in
16:12 4.5 °F 0.6 °F 1029.0 in ENE 7.4 mph 14.0 mph 76 % 0.0 in
16:17 4.3 °F 0.4 °F 1029.0 in East 7.4 mph 12.6 mph 76 % 0.0 in
16:22 4.2 °F 0.3 °F 1029.0 in East 6.8 mph 14.0 mph 76 % 0.0 in
16:27 4.1 °F 0.4 °F 1029.0 in East 7.1 mph 14.0 mph 77 % 0.0 in
16:32 4.0 °F 0.3 °F 1029.0 in ENE 7.2 mph 12.6 mph 77 % 0.0 in
16:37 3.9 °F 0.2 °F 1029.0 in ENE 7.1 mph 13.0 mph 77 % 0.0 in
16:42 3.8 °F 0.1 °F 1029.0 in ENE 7.2 mph 13.0 mph 77 % 0.0 in
16:47 3.7 °F 0.2 °F 1029.0 in East 6.9 mph 10.5 mph 78 % 0.0 in
16:52 3.6 °F 0.1 °F 1029.0 in East 6.3 mph 9.3 mph 78 % 0.0 in
16:58 3.6 °F 0.1 °F 1030.0 in East 5.6 mph 12.6 mph 78 % 0.0 in
17:03 3.4 °F -0.1 °F 1030.0 in East 6.1 mph 12.6 mph 78 % 0.0 in
17:08 3.4 °F -0.1 °F 1030.0 in East 6.3 mph 10.1 mph 78 % 0.0 in
17:13 3.3 °F 0.0 °F 1030.0 in East 6.1 mph 10.5 mph 79 % 0.0 in
17:18 3.3 °F 0.0 °F 1030.0 in ENE 5.8 mph 10.5 mph 79 % 0.0 in
17:23 3.2 °F -0.1 °F 1030.0 in ENE 5.1 mph 9.3 mph 79 % 0.0 in
17:26 3.1 °F -0.2 °F 1031.0 in NE 5.0 mph 9.3 mph 79 % 0.0 in
17:31 3.1 °F -0.2 °F 1031.0 in NE 5.1 mph 9.3 mph 79 % 0.0 in
17:36 3.0 °F -0.1 °F 1031.0 in ENE 4.7 mph 9.0 mph 80 % 0.0 in
17:41 2.9 °F -0.2 °F 1031.0 in ENE 4.3 mph 9.0 mph 80 % 0.0 in
17:46 2.8 °F -0.3 °F 1031.0 in NE 4.0 mph 6.1 mph 80 % 0.0 in
17:51 2.8 °F -0.1 °F 1031.0 in NE 4.8 mph 9.3 mph 81 % 0.0 in
17:56 2.7 °F -0.2 °F 1031.0 in NNE 4.3 mph 9.3 mph 81 % 0.0 in
18:01 2.6 °F -0.3 °F 1031.0 in NNE 3.1 mph 6.1 mph 81 % 0.0 in
18:06 2.5 °F -0.4 °F 1031.0 in NNE 3.1 mph 5.5 mph 81 % 0.0 in
18:11 2.4 °F -0.6 °F 1031.0 in NNW 3.4 mph 6.1 mph 81 % 0.0 in
18:16 2.4 °F -0.3 °F 1031.0 in North 3.7 mph 6.4 mph 82 % 0.0 in
18:21 2.3 °F -0.4 °F 1031.0 in NNE 3.5 mph 6.4 mph 82 % 0.0 in
18:26 2.1 °F -0.7 °F 1032.1 in NNW 2.4 mph 5.5 mph 82 % 0.0 in
18:31 2.0 °F -0.8 °F 1032.1 in North 2.3 mph 5.5 mph 82 % 0.0 in
18:36 1.9 °F -0.8 °F 1032.1 in North 2.4 mph 5.0 mph 82 % 0.0 in
18:41 1.7 °F -0.9 °F 1031.0 in NW 2.4 mph 5.0 mph 83 % 0.0 in
18:46 1.6 °F -1.0 °F 1031.0 in NW 3.4 mph 6.4 mph 83 % 0.0 in
18:51 1.5 °F -1.1 °F 1031.0 in NW 4.2 mph 6.4 mph 83 % 0.0 in
18:53 1.4 °F -1.2 °F 1031.0 in NW 4.0 mph 6.4 mph 83 % 0.0 in
18:58 1.3 °F -1.3 °F 1030.0 in NW 2.9 mph 5.5 mph 83 % 0.0 in
19:03 1.1 °F -1.4 °F 1030.0 in NNW 2.3 mph 7.9 mph 83 % 0.0 in
19:09 1.1 °F -1.4 °F 1030.0 in NW 2.4 mph 7.9 mph 83 % 0.0 in
19:14 1.0 °F -1.6 °F 1031.0 in WNW 1.8 mph 4.7 mph 83 % 0.0 in
19:19 1.0 °F -1.6 °F 1031.0 in NW 1.9 mph 6.1 mph 83 % 0.0 in
19:24 0.9 °F -1.5 °F 1031.0 in NW 3.2 mph 6.9 mph 84 % 0.0 in
19:28 0.9 °F -1.5 °F 1031.0 in NW 3.5 mph 6.9 mph 84 % 0.0 in
19:34 0.8 °F -1.6 °F 1031.0 in NW 2.9 mph 6.4 mph 84 % 0.0 in
19:39 0.7 °F -1.7 °F 1031.0 in NW 3.4 mph 6.4 mph 84 % 0.0 in
19:44 0.8 °F -1.6 °F 1031.0 in WNW 2.9 mph 6.1 mph 84 % 0.0 in
19:49 0.8 °F -1.4 °F 1031.0 in NW 2.3 mph 6.9 mph 85 % 0.0 in
19:53 0.8 °F -1.4 °F 1031.0 in NNW 2.4 mph 6.9 mph 85 % 0.0 in
19:59 0.8 °F -1.4 °F 1031.0 in NNW 1.9 mph 5.8 mph 85 % 0.0 in
20:04 0.9 °F -1.3 °F 1031.0 in NW 2.1 mph 5.5 mph 85 % 0.0 in
20:09 1.0 °F -1.2 °F 1031.0 in WNW 1.3 mph 5.5 mph 85 % 0.0 in
20:14 1.0 °F -1.2 °F 1032.1 in NNW 0.8 mph 6.4 mph 85 % 0.0 in
20:18 1.1 °F -1.0 °F 1032.1 in NNW 1.4 mph 6.4 mph 86 % 0.0 in
20:24 1.1 °F -1.0 °F 1032.1 in NW 3.1 mph 6.1 mph 86 % 0.0 in
20:29 1.2 °F -0.9 °F 1032.1 in NW 2.1 mph 6.1 mph 86 % 0.0 in
20:34 1.3 °F -0.8 °F 1032.1 in North 1.3 mph 5.5 mph 86 % 0.0 in
20:39 1.3 °F -0.8 °F 1032.1 in NNE 1.4 mph 5.5 mph 86 % 0.0 in
20:44 1.4 °F -0.6 °F 1032.1 in NW 1.1 mph 5.0 mph 87 % 0.0 in
20:49 1.5 °F -0.4 °F 1032.1 in WNW 1.4 mph 5.0 mph 87 % 0.0 in
20:54 1.6 °F -0.3 °F 1032.1 in NW 2.1 mph 4.0 mph 87 % 0.0 in
20:59 1.6 °F -0.3 °F 1032.1 in NW 1.6 mph 4.0 mph 87 % 0.0 in
21:04 1.6 °F -0.3 °F 1032.1 in East 0.5 mph 2.6 mph 87 % 0.0 in
21:09 1.7 °F -0.1 °F 1032.1 in WNW 0.3 mph 4.3 mph 88 % 0.0 in
21:14 1.7 °F -0.1 °F 1032.1 in NW 0.8 mph 4.3 mph 88 % 0.0 in
21:19 1.8 °F 0.0 °F 1032.1 in NNW 0.5 mph 3.2 mph 88 % 0.0 in
21:24 1.8 °F 0.0 °F 1032.1 in Calm     88 % 0.0 in
21:29 1.8 °F 0.0 °F 1033.1 in Calm     88 % 0.0 in
21:34 1.9 °F 0.1 °F 1033.1 in Calm     88 % 0.0 in
21:39 2.0 °F 0.2 °F 1033.1 in Calm     88 % 0.0 in
21:44 2.0 °F 0.2 °F 1033.1 in Calm     88 % 0.0 in
21:49 2.1 °F 0.3 °F 1033.1 in Calm     88 % 0.0 in
21:54 2.1 °F 0.5 °F 1033.1 in Calm     89 % 0.0 in
21:59 2.2 °F 0.6 °F 1033.1 in Calm     89 % 0.0 in
22:04 2.2 °F 0.6 °F 1033.1 in Calm     89 % 0.0 in
22:09 2.3 °F 0.7 °F 1033.1 in Calm     89 % 0.0 in
22:14 2.3 °F 0.7 °F 1033.1 in Calm     89 % 0.0 in
22:19 2.3 °F 0.7 °F 1033.1 in Calm   2.6 mph 89 % 0.0 in
22:24 2.4 °F 0.8 °F 1033.1 in Calm   2.6 mph 89 % 0.0 in
22:29 2.4 °F 0.8 °F 1032.1 in East 1.0 mph 5.5 mph 89 % 0.0 in
22:34 2.5 °F 1.0 °F 1032.1 in ENE 1.9 mph 5.5 mph 90 % 0.0 in
22:39 2.6 °F 1.1 °F 1032.1 in NE 0.8 mph 4.0 mph 90 % 0.0 in
22:44 2.6 °F 1.1 °F 1032.1 in Calm   4.0 mph 90 % 0.0 in
22:49 2.7 °F 1.2 °F 1032.1 in East 0.3 mph 4.0 mph 90 % 0.0 in
22:54 2.7 °F 1.2 °F 1032.1 in East 0.3 mph 3.5 mph 90 % 0.0 in
22:59 2.7 °F 1.2 °F 1032.1 in Calm   2.6 mph 90 % 0.0 in
23:04 2.7 °F 1.2 °F 1032.1 in East 0.3 mph 3.2 mph 90 % 0.0 in
23:09 2.8 °F 1.3 °F 1032.1 in East 1.0 mph 4.0 mph 90 % 0.0 in
23:14 2.8 °F 1.5 °F 1032.1 in East 0.8 mph 4.0 mph 91 % 0.0 in
23:19 2.8 °F 1.5 °F 1032.1 in East 1.6 mph 5.5 mph 91 % 0.0 in
23:24 2.9 °F 1.6 °F 1032.1 in ESE 2.7 mph 5.5 mph 91 % 0.0 in
23:29 2.9 °F 1.6 °F 1033.1 in ESE 2.6 mph 5.0 mph 91 % 0.0 in
23:34 2.9 °F 1.6 °F 1033.1 in ESE 2.9 mph 5.0 mph 91 % 0.0 in
23:39 3.0 °F 1.7 °F 1033.1 in ESE 3.7 mph 5.0 mph 91 % 0.0 in
23:44 3.0 °F 1.7 °F 1033.1 in East 3.4 mph 5.5 mph 91 % 0.0 in
23:49 3.0 °F 1.7 °F 1033.1 in ESE 3.4 mph 6.4 mph 91 % 0.0 in
23:54 3.0 °F 1.7 °F 1033.1 in ESE 3.2 mph 6.4 mph 91 % 0.0 in
23:59 3.0 °F 1.7 °F 1032.1 in ESE 2.4 mph 6.4 mph 91 % 0.0 in
Vremenska postaja Senovo
Podatki zbrani iz Weather Underground - 3 mb

Script developed by  Jim McMurry - jmcmurry@mwt.net Adapted for the template by  Wim van der Kuil - Leuven-Template.eu

Vremenski podatki so objavljeni na:

European Weather Network

WeatherCloud

Weather Underground

AWEKAS

HAMweather, WeatherForYou, PWS Weather

MapView

Geostik

Slovenia weather network

Oprema, ki se uporablja:

Vremenski program
Cumulus

Vremenski server
Asus

Cumulus

Asus